createdAt,value
2023-05-26T00:00:57.943Z,95973.06
2023-05-26T00:04:01.671Z,95976.22
2023-05-26T00:07:03.638Z,95970.81
2023-05-26T00:10:06.409Z,95966.28
2023-05-26T00:13:08.496Z,95971.78
2023-05-26T00:16:10.464Z,95969.50
2023-05-26T00:19:15.690Z,95975.38
2023-05-26T00:22:17.686Z,95974.28
2023-05-26T00:25:19.613Z,95977.91
2023-05-26T00:28:21.449Z,95975.50
2023-05-26T00:31:23.456Z,95972.13
2023-05-26T00:34:26.584Z,95979.97
2023-05-26T00:37:28.396Z,95972.13
2023-05-26T00:40:30.444Z,95980.59
2023-05-26T00:43:33.409Z,95977.03
2023-05-26T00:46:35.695Z,95978.97
2023-05-26T00:49:39.970Z,95968.81
2023-05-26T00:52:42.662Z,95965.66
2023-05-26T00:55:45.792Z,95975.06
2023-05-26T00:58:47.891Z,95971.13
2023-05-26T01:01:49.940Z,95968.47
2023-05-26T01:04:53.229Z,95966.88
2023-05-26T01:07:55.209Z,95964.00
2023-05-26T01:11:03.589Z,95965.53
2023-05-26T01:14:11.320Z,95959.28
2023-05-26T01:17:17.033Z,95962.00
2023-05-26T01:20:26.717Z,95958.53
2023-05-26T01:23:38.950Z,95958.94
2023-05-26T01:27:03.745Z,95955.44
2023-05-26T01:30:08.758Z,95954.75
2023-05-26T01:33:10.691Z,95962.47
2023-05-26T01:36:14.249Z,95955.56
2023-05-26T01:39:16.234Z,95956.38
2023-05-26T01:45:42.319Z,95957.16
2023-05-26T01:48:47.169Z,95962.97
2023-05-26T01:51:52.189Z,95960.34
2023-05-26T01:54:58.716Z,95964.25
2023-05-26T01:58:02.685Z,95961.56
2023-05-26T02:01:06.373Z,95958.81
2023-05-26T02:04:10.498Z,95961.13
2023-05-26T02:07:14.605Z,95956.88
2023-05-26T02:10:16.661Z,95954.56
2023-05-26T02:13:18.938Z,95958.91
2023-05-26T02:16:24.515Z,95957.38
2023-05-26T02:19:26.691Z,95959.28
2023-05-26T02:22:28.693Z,95962.00
2023-05-26T02:25:32.719Z,95961.59
2023-05-26T02:28:37.126Z,95960.84
2023-05-26T02:31:43.145Z,95962.81
2023-05-26T02:34:47.678Z,95962.78
2023-05-26T02:37:49.705Z,95970.56
2023-05-26T02:40:51.952Z,95962.47
2023-05-26T02:43:53.724Z,95956.25
2023-05-26T02:46:57.389Z,95971.06
2023-05-26T02:49:59.909Z,95965.69
2023-05-26T02:53:02.235Z,95968.03
2023-05-26T02:56:05.550Z,95962.53
2023-05-26T02:59:08.254Z,95966.34
2023-05-26T03:02:11.965Z,95967.63
2023-05-26T03:05:13.982Z,95966.09
2023-05-26T03:08:15.878Z,95971.56
2023-05-26T03:11:17.930Z,95967.25
2023-05-26T03:14:19.976Z,95969.53
2023-05-26T03:17:23.094Z,95971.91
2023-05-26T03:20:26.142Z,95979.59
2023-05-26T03:23:28.266Z,95978.09
2023-05-26T03:26:30.550Z,95973.75
2023-05-26T03:29:32.741Z,95971.81
2023-05-26T03:32:38.548Z,95968.69
2023-05-26T03:35:40.518Z,95976.91
2023-05-26T03:38:42.246Z,95976.53
2023-05-26T03:41:44.230Z,95976.28
2023-05-26T03:44:47.002Z,95971.19
2023-05-26T03:47:50.685Z,95978.16
2023-05-26T03:50:53.490Z,95976.28
2023-05-26T03:53:55.227Z,95976.22
2023-05-26T03:56:57.036Z,95978.22
2023-05-26T03:59:58.945Z,95973.09
2023-05-26T04:03:02.587Z,95974.72
2023-05-26T04:06:04.993Z,95977.44
2023-05-26T04:09:09.078Z,95975.91
2023-05-26T04:12:13.496Z,95987.91
2023-05-26T04:15:15.617Z,95987.94
2023-05-26T04:18:19.033Z,95986.78
2023-05-26T04:21:23.261Z,95992.28
2023-05-26T04:24:27.722Z,95989.91
2023-05-26T04:27:30.041Z,95989.91
2023-05-26T04:30:32.336Z,95989.09
2023-05-26T04:33:38.715Z,95991.38
2023-05-26T04:36:41.196Z,95996.38
2023-05-26T04:39:42.913Z,95994.38
2023-05-26T04:42:45.083Z,95995.97
2023-05-26T04:45:46.993Z,95994.41
2023-05-26T04:48:50.720Z,95996.72
2023-05-26T04:51:59.505Z,96003.06
2023-05-26T04:55:02.420Z,96006.19
2023-05-26T04:58:05.203Z,95998.44
2023-05-26T05:01:08.116Z,96010.06
2023-05-26T05:04:15.705Z,96013.19
2023-05-26T05:07:18.277Z,96003.78
2023-05-26T05:10:21.408Z,96004.94
2023-05-26T05:13:26.266Z,96004.88
2023-05-26T05:16:28.079Z,96004.88
2023-05-26T05:19:31.627Z,96006.44
2023-05-26T05:22:33.561Z,96007.19
2023-05-26T05:25:35.336Z,96007.94
2023-05-26T05:28:37.191Z,96018.38
2023-05-26T05:31:39.108Z,96016.09
2023-05-26T05:34:44.810Z,96012.19
2023-05-26T05:37:46.600Z,96014.16
2023-05-26T05:40:48.837Z,96020.78
2023-05-26T05:43:50.915Z,96022.75
2023-05-26T05:46:53.290Z,96022.00
2023-05-26T05:49:57.662Z,96012.22
2023-05-26T05:52:59.818Z,96020.69
2023-05-26T05:56:04.376Z,96016.84
2023-05-26T05:59:07.003Z,96022.34
2023-05-26T06:02:09.162Z,96024.59
2023-05-26T06:05:14.102Z,96018.84
2023-05-26T06:08:16.281Z,96028.53
2023-05-26T06:11:18.579Z,96024.25
2023-05-26T06:14:21.484Z,96029.25
2023-05-26T06:17:24.374Z,96030.03
2023-05-26T06:20:28.260Z,96028.81
2023-05-26T06:23:32.365Z,96032.66
2023-05-26T06:26:34.663Z,96026.41
2023-05-26T06:29:36.805Z,96031.84
2023-05-26T06:32:39.075Z,96030.59
2023-05-26T06:35:42.533Z,96036.50
2023-05-26T06:38:46.771Z,96037.72
2023-05-26T06:41:48.751Z,96033.25
2023-05-26T06:44:53.550Z,96045.63
2023-05-26T06:47:57.180Z,96039.31
2023-05-26T06:51:00.572Z,96035.34
2023-05-26T06:54:02.570Z,96045.41
2023-05-26T06:57:04.941Z,96039.44
2023-05-26T07:00:09.634Z,96042.75
2023-05-26T07:03:11.697Z,96033.34
2023-05-26T07:06:17.353Z,96041.75
2023-05-26T07:09:19.402Z,96047.19
2023-05-26T07:12:22.735Z,96042.91
2023-05-26T07:15:24.743Z,96049.41
2023-05-26T07:18:27.967Z,96046.72
2023-05-26T07:21:33.193Z,96055.63
2023-05-26T07:24:38.631Z,96049.53
2023-05-26T07:27:40.618Z,96047.16
2023-05-26T07:30:42.701Z,96053.03
2023-05-26T07:33:46.204Z,96053.41
2023-05-26T07:36:51.657Z,96048.53
2023-05-26T07:39:53.684Z,96050.78
2023-05-26T07:42:57.932Z,96056.53
2023-05-26T07:46:00.550Z,96060.81
2023-05-26T07:49:02.361Z,96054.41
2023-05-26T07:52:06.052Z,96056.03
2023-05-26T07:55:11.309Z,96055.13
2023-05-26T07:58:13.658Z,96052.34
2023-05-26T08:01:15.700Z,96052.00
2023-05-26T08:04:18.277Z,96054.44
2023-05-26T08:07:22.605Z,96057.63
2023-05-26T08:10:26.774Z,96055.50
2023-05-26T08:13:29.036Z,96057.47
2023-05-26T08:16:31.343Z,96055.06
2023-05-26T08:19:35.945Z,96057.84
2023-05-26T08:22:39.426Z,96053.38
2023-05-26T08:25:43.917Z,96047.63
2023-05-26T08:28:45.837Z,96055.66
2023-05-26T08:31:48.549Z,96050.88
2023-05-26T08:34:50.517Z,96049.53
2023-05-26T08:37:53.677Z,96049.47
2023-05-26T08:40:58.097Z,96053.25
2023-05-26T08:44:07.604Z,96050.16
2023-05-26T08:47:11.435Z,96052.50
2023-05-26T08:50:14.535Z,96042.50
2023-05-26T08:53:18.524Z,96044.13
2023-05-26T08:56:21.090Z,96054.59
2023-05-26T08:59:23.613Z,96041.91
2023-05-26T09:02:25.489Z,96040.47
2023-05-26T09:05:27.351Z,96044.16
2023-05-26T09:08:30.787Z,96043.38
2023-05-26T09:11:32.763Z,96046.66
2023-05-26T09:14:37.379Z,96053.66
2023-05-26T09:17:42.623Z,96048.00
2023-05-26T09:20:46.250Z,96051.78
2023-05-26T09:23:56.398Z,96054.78
2023-05-26T09:27:00.533Z,96044.69
2023-05-26T09:30:02.361Z,96049.41
2023-05-26T09:33:05.682Z,96057.97
2023-05-26T09:36:08.040Z,96048.34
2023-05-26T09:39:14.257Z,96051.63
2023-05-26T09:45:19.819Z,96046.19
2023-05-26T09:48:21.642Z,96040.44
2023-05-26T09:51:35.310Z,96040.63
2023-05-26T09:54:42.052Z,96040.94
2023-05-26T09:57:46.141Z,96045.28
2023-05-26T10:00:48.674Z,96046.75
2023-05-26T10:03:51.924Z,96046.94
2023-05-26T10:06:55.348Z,96047.63
2023-05-26T10:10:00.078Z,96040.25
2023-05-26T10:13:02.014Z,96040.84
2023-05-26T10:16:05.265Z,96036.22
2023-05-26T10:19:08.334Z,96038.00
2023-05-26T10:22:14.912Z,96034.81
2023-05-26T10:25:23.437Z,96040.69
2023-05-26T10:28:30.605Z,96045.00
2023-05-26T10:31:34.794Z,96043.63
2023-05-26T10:34:40.994Z,96034.97
2023-05-26T10:37:49.229Z,96031.53
2023-05-26T10:40:53.035Z,96039.78
2023-05-26T10:43:55.105Z,96034.19
2023-05-26T10:47:05.193Z,96039.47
2023-05-26T10:50:07.517Z,96027.00
2023-05-26T10:53:21.793Z,96032.41
2023-05-26T10:56:35.938Z,96023.16
2023-05-26T10:59:37.809Z,96024.69
2023-05-26T11:02:40.727Z,96019.19
2023-05-26T11:05:55.572Z,96019.59
2023-05-26T11:09:07.081Z,96026.44
2023-05-26T11:12:11.150Z,96030.63
2023-05-26T11:15:32.139Z,96027.38
2023-05-26T11:18:34.030Z,96029.25
2023-05-26T11:21:37.147Z,96026.94
2023-05-26T11:24:39.239Z,96028.75
2023-05-26T11:27:47.584Z,96032.84
2023-05-26T11:30:49.828Z,96022.03
2023-05-26T11:33:51.790Z,96026.63
2023-05-26T11:36:56.834Z,96026.31
2023-05-26T11:39:59.077Z,96030.28
2023-05-26T11:43:04.641Z,96031.75
2023-05-26T11:46:11.534Z,96032.19
2023-05-26T11:49:14.739Z,96024.63
2023-05-26T11:52:19.452Z,96021.19
2023-05-26T11:55:21.297Z,96024.59
2023-05-26T11:58:24.884Z,96021.50
2023-05-26T12:01:27.648Z,96026.81
2023-05-26T12:04:31.820Z,96018.94
2023-05-26T12:07:33.811Z,96018.84
2023-05-26T12:10:37.477Z,96015.50
2023-05-26T12:13:43.294Z,96018.34
2023-05-26T12:16:47.304Z,96013.34
2023-05-26T12:19:51.906Z,96016.03
2023-05-26T12:22:54.534Z,96018.97
2023-05-26T12:25:56.606Z,96012.50
2023-05-26T12:29:12.796Z,96017.25
2023-05-26T12:32:17.044Z,96020.72
2023-05-26T12:35:19.465Z,96012.53
2023-05-26T12:38:21.406Z,96009.78
2023-05-26T12:41:23.184Z,96007.25
2023-05-26T12:44:29.454Z,96012.47
2023-05-26T12:47:31.875Z,96012.56
2023-05-26T12:50:35.567Z,96009.41
2023-05-26T12:53:39.583Z,96012.56
2023-05-26T12:56:42.464Z,96013.41
2023-05-26T12:59:45.896Z,96007.03
2023-05-26T13:02:47.752Z,96001.16
2023-05-26T13:05:50.041Z,95997.91
2023-05-26T13:08:54.231Z,95991.66
2023-05-26T13:11:56.478Z,96004.31
2023-05-26T13:14:59.788Z,95999.88
2023-05-26T13:18:01.838Z,96006.34
2023-05-26T13:21:04.261Z,96001.28
2023-05-26T13:24:06.537Z,95999.66
2023-05-26T13:27:11.351Z,96006.78
2023-05-26T13:30:15.077Z,96002.69
2023-05-26T13:33:17.596Z,96000.44
2023-05-26T13:36:20.036Z,95996.81
2023-05-26T13:39:22.079Z,96008.34
2023-05-26T13:42:24.025Z,95999.53
2023-05-26T13:45:30.393Z,96000.97
2023-05-26T13:48:32.712Z,96007.44
2023-05-26T13:51:35.324Z,96012.69
2023-05-26T13:54:37.343Z,96009.94
2023-05-26T13:57:39.372Z,96011.19
2023-05-26T14:00:45.487Z,96003.13
2023-05-26T14:03:48.053Z,96001.06
2023-05-26T14:06:51.766Z,96007.31
2023-05-26T14:09:54.298Z,96008.34
2023-05-26T14:12:56.358Z,95994.53
2023-05-26T14:16:00.138Z,95991.56
2023-05-26T14:19:05.995Z,95995.41
2023-05-26T14:22:21.864Z,95989.00
2023-05-26T14:25:26.480Z,95979.91
2023-05-26T14:28:28.219Z,95986.97
2023-05-26T14:31:31.926Z,95988.72
2023-05-26T14:34:34.948Z,95983.47
2023-05-26T14:37:37.559Z,95984.22
2023-05-26T14:40:39.367Z,95986.50
2023-05-26T14:50:00.562Z,95983.31
2023-05-26T14:53:02.640Z,95973.78
2023-05-26T14:56:05.264Z,95969.28
2023-05-26T14:59:07.007Z,95965.25
2023-05-26T15:02:10.235Z,95961.84
2023-05-26T15:05:12.478Z,95960.50
2023-05-26T15:08:14.842Z,95959.94
2023-05-26T15:11:16.590Z,95960.69
2023-05-26T15:14:18.374Z,95956.44
2023-05-26T15:17:21.465Z,95963.97
2023-05-26T15:20:24.893Z,95954.34
2023-05-26T15:23:27.198Z,95954.63
2023-05-26T15:26:29.285Z,95939.59
2023-05-26T15:29:31.040Z,95945.63
2023-05-26T15:32:37.637Z,95937.41
2023-05-26T15:35:39.717Z,95941.72
2023-05-26T15:38:44.761Z,95939.69
2023-05-26T15:41:50.364Z,95943.06
2023-05-26T15:44:52.469Z,95940.94
2023-05-26T15:48:00.163Z,95927.91
2023-05-26T15:51:02.045Z,95932.34
2023-05-26T15:54:04.059Z,95934.19
2023-05-26T15:57:20.857Z,95921.28
2023-05-26T16:00:25.056Z,95918.56
2023-05-26T16:03:31.507Z,95921.50
2023-05-26T16:06:33.968Z,95920.97
2023-05-26T16:09:36.075Z,95911.75
2023-05-26T16:12:38.298Z,95913.22
2023-05-26T16:15:42.306Z,95910.59
2023-05-26T16:18:45.682Z,95908.50
2023-05-26T16:21:47.826Z,95902.81
2023-05-26T16:24:49.774Z,95902.19
2023-05-26T16:27:51.561Z,95904.53
2023-05-26T16:30:56.123Z,95910.53
2023-05-26T16:33:59.767Z,95909.63
2023-05-26T16:37:01.508Z,95916.00
2023-05-26T16:40:06.387Z,95918.00
2023-05-26T16:43:08.969Z,95910.13
2023-05-26T16:46:12.147Z,95911.41
2023-05-26T16:49:17.870Z,95914.78
2023-05-26T16:52:19.630Z,95915.72
2023-05-26T16:55:22.883Z,95914.19
2023-05-26T16:58:24.664Z,95906.34
2023-05-26T17:01:26.773Z,95923.94
2023-05-26T17:04:30.276Z,95911.69
2023-05-26T17:07:32.479Z,95909.25
2023-05-26T17:10:37.092Z,95913.91
2023-05-26T17:13:39.551Z,95907.09
2023-05-26T17:16:42.016Z,95909.03
2023-05-26T17:19:46.644Z,95907.66
2023-05-26T17:22:48.833Z,95905.28
2023-05-26T17:25:52.376Z,95909.63
2023-05-26T17:28:56.531Z,95906.66
2023-05-26T17:31:58.564Z,95920.34
2023-05-26T17:35:02.714Z,95916.94
2023-05-26T17:38:04.619Z,95918.16
2023-05-26T17:41:07.417Z,95913.91
2023-05-26T17:44:12.164Z,95924.44
2023-05-26T17:47:14.720Z,95923.81
2023-05-26T17:50:21.147Z,95925.81
2023-05-26T17:53:24.390Z,95930.91
2023-05-26T17:56:26.168Z,95930.94
2023-05-26T17:59:29.870Z,95933.53
2023-05-26T18:02:32.700Z,95931.53
2023-05-26T18:05:36.480Z,95948.28
2023-05-26T18:08:38.290Z,95944.44
2023-05-26T18:11:41.307Z,95949.22
2023-05-26T18:14:43.058Z,95950.22
2023-05-26T18:17:45.143Z,95944.69
2023-05-26T18:20:48.683Z,95944.00
2023-05-26T18:23:51.095Z,95945.75
2023-05-26T18:27:00.314Z,95937.22
2023-05-26T18:30:02.831Z,95950.69
2023-05-26T18:33:06.320Z,95945.31
2023-05-26T18:36:09.719Z,95952.63
2023-05-26T18:39:13.817Z,95952.03
2023-05-26T18:42:15.766Z,95957.31
2023-05-26T18:45:17.601Z,95959.50
2023-05-26T18:48:19.506Z,95956.50
2023-05-26T18:51:23.213Z,95961.50
2023-05-26T18:54:26.308Z,95965.28
2023-05-26T18:57:29.598Z,95962.00
2023-05-26T19:00:32.012Z,95967.41
2023-05-26T19:03:33.924Z,95966.03
2023-05-26T19:06:38.221Z,95974.63
2023-05-26T19:09:40.005Z,95983.19
2023-05-26T19:12:42.050Z,95984.75
2023-05-26T19:15:45.243Z,95992.84
2023-05-26T19:18:47.091Z,96003.53
2023-05-26T19:21:50.529Z,96002.19
2023-05-26T19:24:55.135Z,95991.56
2023-05-26T19:27:57.370Z,96006.25
2023-05-26T19:30:59.404Z,96004.06
2023-05-26T19:34:02.088Z,96006.81
2023-05-26T19:37:06.189Z,96016.69
2023-05-26T19:40:09.575Z,96014.66
2023-05-26T19:43:13.560Z,96017.88
2023-05-26T19:46:19.520Z,96007.25
2023-05-26T19:49:21.882Z,96012.56
2023-05-26T19:52:26.516Z,96017.69
2023-05-26T19:55:31.586Z,96026.69
2023-05-26T19:58:33.871Z,96024.53
2023-05-26T20:01:36.556Z,96031.00
2023-05-26T20:04:38.927Z,96027.69
2023-05-26T20:07:42.499Z,96033.09
2023-05-26T20:10:44.506Z,96030.22
2023-05-26T20:13:46.547Z,96027.84
2023-05-26T20:16:48.772Z,96036.34
2023-05-26T20:20:10.899Z,96036.56
2023-05-26T20:23:17.769Z,96043.50
2023-05-26T20:26:20.335Z,96043.19
2023-05-26T20:29:22.188Z,96059.16
2023-05-26T20:32:24.963Z,96060.56
2023-05-26T20:35:27.205Z,96063.59
2023-05-26T20:38:32.602Z,96066.75
2023-05-26T20:41:34.737Z,96058.47
2023-05-26T20:44:38.635Z,96070.72
2023-05-26T20:47:41.914Z,96078.75
2023-05-26T20:50:44.213Z,96079.72
2023-05-26T20:53:50.437Z,96083.78
2023-05-26T20:56:52.407Z,96079.88
2023-05-26T20:59:56.414Z,96088.56
2023-05-26T21:02:59.238Z,96083.97
2023-05-26T21:06:03.666Z,96089.28
2023-05-26T21:09:07.472Z,96094.44
2023-05-26T21:12:11.351Z,96090.44
2023-05-26T21:15:13.376Z,96091.13
2023-05-26T21:18:15.359Z,96099.66
2023-05-26T21:21:17.800Z,96101.25
2023-05-26T21:24:22.698Z,96105.41
2023-05-26T21:27:24.664Z,96105.09
2023-05-26T21:30:29.232Z,96101.53
2023-05-26T21:33:32.354Z,96106.41
2023-05-26T21:36:34.163Z,96109.13
2023-05-26T21:39:38.332Z,96104.53
2023-05-26T21:42:42.091Z,96107.78
2023-05-26T21:45:44.109Z,96114.34
2023-05-26T21:48:48.189Z,96119.38
2023-05-26T21:51:50.248Z,96115.34
2023-05-26T21:54:53.790Z,96127.81
2023-05-26T21:57:55.763Z,96114.50
2023-05-26T22:00:59.242Z,96122.47
2023-05-26T22:04:01.350Z,96120.41
2023-05-26T22:07:03.345Z,96120.81
2023-05-26T22:10:08.309Z,96126.22
2023-05-26T22:13:10.263Z,96123.06
2023-05-26T22:16:15.111Z,96121.16
2023-05-26T22:19:17.336Z,96116.16
2023-05-26T22:22:19.121Z,96124.09
2023-05-26T22:25:25.044Z,96115.09
2023-05-26T22:28:27.003Z,96120.69
2023-05-26T22:31:30.463Z,96124.31
2023-05-26T22:34:34.820Z,96116.88
2023-05-26T22:37:40.138Z,96128.44
2023-05-26T22:40:43.571Z,96125.94
2023-05-26T22:43:48.382Z,96122.81
2023-05-26T22:46:52.838Z,96126.88
2023-05-26T22:49:58.015Z,96118.50
2023-05-26T22:53:00.227Z,96118.31
2023-05-26T22:56:13.527Z,96120.16
2023-05-26T22:59:16.828Z,96117.31
2023-05-26T23:02:18.671Z,96109.94
2023-05-26T23:05:20.502Z,96115.06
2023-05-26T23:08:22.959Z,96103.63
2023-05-26T23:11:27.357Z,96104.72
2023-05-26T23:14:29.161Z,96110.22
2023-05-26T23:17:32.401Z,96112.91
2023-05-26T23:20:34.783Z,96111.22
2023-05-26T23:23:36.993Z,96110.31
2023-05-26T23:26:41.315Z,96118.59
2023-05-26T23:29:43.066Z,96111.78
2023-05-26T23:32:45.228Z,96118.63
2023-05-26T23:35:48.755Z,96116.66
2023-05-26T23:38:50.893Z,96108.56
2023-05-26T23:41:54.575Z,96121.41
2023-05-26T23:44:56.519Z,96115.56
2023-05-26T23:47:58.607Z,96109.81
2023-05-26T23:51:02.734Z,96110.31
2023-05-26T23:54:06.953Z,96107.22
2023-05-26T23:57:10.656Z,96108.66
